Pamlico — WX6900 — position and weather

sailwx.info

Track history (hours):
 
Tides and Currents Weather Stations Pressure Air Temp Water Temp Dewpoint Dewpoint Depression Visibility Wind Speed Wind Dir Waves Ship Positions

Pamlico

More information available from US FCC via Universal Licensing System and Coast Guard Vessel Documentation Center.

Last reported at 2014-Jul-30 01:10 UTC. Time now 2014-Jul-31 01:25 UTC.
Position N 35°04' W 076°33'.

Length 30 m; draft 3 m.

MMSI: 367361220.

Date/timePositionNaut miles runAvg speedWind from/ knotsBaromVisibWave heightAir tempDewpointWater temp
2014-Jul-30 01:10N 35°04' W 076°33'9 8.2
2014-Jul-30 00:07N 34°58' W 076°42'4 6.9
2014-Jul-29 23:33N 34°55' W 076°40'6 5.8
2014-Jul-29 22:34N 34°49' W 076°41'6 6.0
2014-Jul-29 21:34N 34°43' W 076°42'0 0.1
2014-Jul-29 20:34N 34°43' W 076°42'5 5.0
2014-Jul-29 19:34N 34°48' W 076°41'6 5.9
2014-Jul-29 18:32N 34°54' W 076°40'6 5.8
2014-Jul-29 17:31N 35°00' W 076°40'9 7.4
2014-Jul-29 16:16N 35°06' W 076°32'  
2014-Jul-26 07:22N 34°59' W 076°41'5 6.3
2014-Jul-26 06:33N 34°54' W 076°40'5 5.3
2014-Jul-26 05:34N 34°49' W 076°41'6 6.3
2014-Jul-26 04:34N 34°43' W 076°42'3 2.5
2014-Jul-26 03:34N 34°45' W 076°41'5 5.4
2014-Jul-26 02:34N 34°50' W 076°41'4 4.2
2014-Jul-26 01:32N 34°55' W 076°40'5 5.4
2014-Jul-26 00:34N 34°60' W 076°41'9 7.2
2014-Jul-25 23:19N 35°05' W 076°32'  
Track history (hours):
 
Tides and Currents Weather Stations Pressure Air Temp Water Temp Dewpoint Dewpoint Depression Visibility Wind Speed Wind Dir Waves Ship Positions

Pamlico

More information available from US FCC via Universal Licensing System and Coast Guard Vessel Documentation Center.

Last reported at 2014-Jul-30 01:10 UTC. Time now 2014-Jul-31 01:25 UTC.
Position N 35°04' W 076°33'.

Length 30 m; draft 3 m.

MMSI: 367361220.

Date/timePositionNaut miles runAvg speedWind from/ knotsBaromVisibWave heightAir tempDewpointWater temp
2014-Jul-30 01:10N 35°04' W 076°33'9 8.2
2014-Jul-30 00:07N 34°58' W 076°42'4 6.9
2014-Jul-29 23:33N 34°55' W 076°40'6 5.8
2014-Jul-29 22:34N 34°49' W 076°41'6 6.0
2014-Jul-29 21:34N 34°43' W 076°42'0 0.1
2014-Jul-29 20:34N 34°43' W 076°42'5 5.0
2014-Jul-29 19:34N 34°48' W 076°41'6 5.9
2014-Jul-29 18:32N 34°54' W 076°40'6 5.8
2014-Jul-29 17:31N 35°00' W 076°40'9 7.4
2014-Jul-29 16:16N 35°06' W 076°32'  
2014-Jul-26 07:22N 34°59' W 076°41'5 6.3
2014-Jul-26 06:33N 34°54' W 076°40'5 5.3
2014-Jul-26 05:34N 34°49' W 076°41'6 6.3
2014-Jul-26 04:34N 34°43' W 076°42'3 2.5
2014-Jul-26 03:34N 34°45' W 076°41'5 5.4
2014-Jul-26 02:34N 34°50' W 076°41'4 4.2
2014-Jul-26 01:32N 34°55' W 076°40'5 5.4
2014-Jul-26 00:34N 34°60' W 076°41'9 7.2
2014-Jul-25 23:19N 35°05' W 076°32'  

Dump ship's entire track history